Time,TemperatureF,DewpointF,PressureIn,WindDirection,WindDirectionDegrees,WindSpeedMPH,WindSpeedGustMPH,Humidity,HourlyPrecipIn,Conditions,Clouds,dailyrainin,SoftwareType,DateUTC
2013-05-29 00:01:00,59.3,57.3,30.16,ESE,120,7.0,7.0,93,0.00,,---,0.00,VWS V14.01,2013-05-29 04:01:00,
2013-05-29 00:06:00,59.2,57.2,30.16,SE,137,5.0,8.0,93,0.00,,---,0.00,VWS V14.01,2013-05-29 04:06:00,
2013-05-29 00:11:00,59.0,57.3,30.17,ESE,118,6.0,8.0,94,0.00,,---,0.00,VWS V14.01,2013-05-29 04:11:00,
2013-05-29 00:16:00,58.9,57.2,30.17,SSE,150,7.0,7.0,94,0.00,,---,0.00,VWS V14.01,2013-05-29 04:16:00,
2013-05-29 00:21:00,59.1,57.7,30.17,SE,141,5.0,6.0,95,0.00,,---,0.00,VWS V14.01,2013-05-29 04:21:00,
2013-05-29 00:26:00,59.2,57.8,30.16,SE,130,8.0,9.0,95,0.00,,---,0.00,VWS V14.01,2013-05-29 04:26:00,
2013-05-29 00:31:00,59.3,57.6,30.16,SSE,155,8.0,10.0,94,0.00,,---,0.00,VWS V14.01,2013-05-29 04:31:00,
2013-05-29 00:36:00,59.3,57.6,30.16,SSE,148,9.0,9.0,94,0.00,,---,0.00,VWS V14.01,2013-05-29 04:36:00,
2013-05-29 00:41:00,59.4,57.7,30.16,SE,124,7.0,9.0,94,0.00,,---,0.00,VWS V14.01,2013-05-29 04:41:00,
2013-05-29 00:46:00,59.3,57.6,30.16,SE,125,8.0,9.0,94,0.00,,---,0.00,VWS V14.01,2013-05-29 04:46:00,
2013-05-29 00:51:00,59.3,57.6,30.15,East,99,7.0,13.0,94,0.00,,---,0.00,VWS V14.01,2013-05-29 04:51:00,
2013-05-29 00:56:00,59.3,57.9,30.16,East,95,8.0,9.0,95,0.00,,---,0.00,VWS V14.01,2013-05-29 04:56:00,
2013-05-29 01:01:00,59.4,58.0,30.15,SE,134,10.0,11.0,95,0.00,,---,0.00,VWS V14.01,2013-05-29 05:01:00,
2013-05-29 01:06:00,59.4,58.0,30.15,SSE,168,6.0,10.0,95,0.00,,---,0.00,VWS V14.01,2013-05-29 05:06:00,
2013-05-29 01:11:00,59.4,58.0,30.15,ESE,120,10.0,10.0,95,0.00,,---,0.00,VWS V14.01,2013-05-29 05:11:00,
2013-05-29 01:16:00,59.3,57.9,30.15,SSE,151,7.0,8.0,95,0.00,,---,0.00,VWS V14.01,2013-05-29 05:16:00,
2013-05-29 01:21:00,59.2,57.8,30.16,South,177,6.0,8.0,95,0.00,,---,0.00,VWS V14.01,2013-05-29 05:21:00,
2013-05-29 01:26:00,59.0,57.6,30.16,SSE,167,8.0,9.0,95,0.00,,---,0.00,VWS V14.01,2013-05-29 05:26:00,
2013-05-29 01:31:00,58.9,57.5,30.16,SE,126,8.0,13.0,95,0.00,,---,0.00,VWS V14.01,2013-05-29 05:31:00,
2013-05-29 01:36:00,58.7,57.6,30.16,SSE,166,9.0,9.0,96,0.00,,---,0.00,VWS V14.01,2013-05-29 05:36:00,
2013-05-29 01:41:00,58.5,57.4,30.16,SE,145,5.0,5.0,96,0.00,,---,0.00,VWS V14.01,2013-05-29 05:41:00,
2013-05-29 01:46:00,58.4,57.6,30.16,SSE,167,6.0,6.0,97,0.00,,---,0.00,VWS V14.01,2013-05-29 05:46:00,
2013-05-29 01:51:00,58.2,57.4,30.16,SSE,160,5.0,6.0,97,0.00,,---,0.00,VWS V14.01,2013-05-29 05:51:00,
2013-05-29 01:56:00,58.0,57.2,30.16,SSE,160,4.0,4.0,97,0.00,,---,0.00,VWS V14.01,2013-05-29 05:56:00,
2013-05-29 02:01:00,57.9,57.1,30.16,SSE,157,7.0,8.0,97,0.00,,---,0.00,VWS V14.01,2013-05-29 06:01:00,
2013-05-29 02:06:00,57.8,57.0,30.15,South,178,4.0,9.0,97,0.00,,---,0.00,VWS V14.01,2013-05-29 06:06:00,
2013-05-29 02:11:00,57.7,56.9,30.15,South,170,7.0,7.0,97,0.00,,---,0.00,VWS V14.01,2013-05-29 06:11:00,
2013-05-29 02:16:00,57.6,56.8,30.15,SE,141,10.0,10.0,97,0.00,,---,0.00,VWS V14.01,2013-05-29 06:16:00,
2013-05-29 02:21:00,57.5,56.7,30.15,SSE,152,4.0,5.0,97,0.00,,---,0.00,VWS V14.01,2013-05-29 06:21:00,
2013-05-29 02:26:00,57.5,56.4,30.16,SSE,157,4.0,5.0,96,0.00,,---,0.00,VWS V14.01,2013-05-29 06:26:00,
2013-05-29 02:31:00,57.4,56.3,30.16,South,170,4.0,6.0,96,0.00,,---,0.00,VWS V14.01,2013-05-29 06:31:00,
2013-05-29 02:36:00,57.3,56.2,30.15,ESE,107,4.0,6.0,96,0.00,,---,0.00,VWS V14.01,2013-05-29 06:36:00,
2013-05-29 02:41:00,57.2,56.4,30.15,SSE,162,4.0,5.0,97,0.00,,---,0.00,VWS V14.01,2013-05-29 06:41:00,
2013-05-29 02:46:00,57.1,56.3,30.15,ESE,106,2.0,6.0,97,0.00,,---,0.00,VWS V14.01,2013-05-29 06:46:00,
2013-05-29 02:51:00,57.1,56.3,30.15,SSE,165,5.0,6.0,97,0.00,,---,0.00,VWS V14.01,2013-05-29 06:51:00,
2013-05-29 02:56:00,57.0,56.2,30.15,South,172,3.0,6.0,97,0.00,,---,0.00,VWS V14.01,2013-05-29 06:56:00,
2013-05-29 03:01:00,56.9,56.1,30.15,SE,140,7.0,7.0,97,0.00,,---,0.00,VWS V14.01,2013-05-29 07:01:00,
2013-05-29 03:06:00,56.8,56.0,30.16,South,172,6.0,8.0,97,0.00,,---,0.00,VWS V14.01,2013-05-29 07:06:00,
2013-05-29 03:11:00,56.7,55.9,30.16,South,170,4.0,5.0,97,0.00,,---,0.00,VWS V14.01,2013-05-29 07:11:00,
2013-05-29 03:16:00,56.7,55.9,30.16,South,172,4.0,6.0,97,0.00,,---,0.00,VWS V14.01,2013-05-29 07:16:00,
2013-05-29 03:21:00,56.6,56.0,30.16,SE,127,2.0,3.0,98,0.00,,---,0.00,VWS V14.01,2013-05-29 07:21:00,
2013-05-29 03:26:00,56.6,56.0,30.16,SE,143,1.0,2.0,98,0.00,,---,0.00,VWS V14.01,2013-05-29 07:26:00,
2013-05-29 03:31:00,56.5,55.9,30.16,SSE,167,2.0,3.0,98,0.00,,---,0.00,VWS V14.01,2013-05-29 07:31:00,
2013-05-29 03:36:00,56.5,55.9,30.16,South,169,1.0,2.0,98,0.00,,---,0.00,VWS V14.01,2013-05-29 07:36:00,
2013-05-29 03:41:00,56.4,55.8,30.16,South,172,1.0,1.0,98,0.00,,---,0.00,VWS V14.01,2013-05-29 07:41:00,
2013-05-29 03:45:00,56.4,56.1,30.16,South,172,2.0,2.0,99,0.00,,---,0.00,VWS V14.01,2013-05-29 07:45:00,
2013-05-29 03:50:00,56.3,56.0,30.16,South,172,1.0,2.0,99,0.00,,---,0.00,VWS V14.01,2013-05-29 07:50:00,
2013-05-29 03:55:00,56.3,56.0,30.16,South,172,1.0,1.0,99,0.00,,---,0.00,VWS V14.01,2013-05-29 07:55:00,
2013-05-29 04:00:00,56.3,56.0,30.17,South,172,0.0,0.0,99,0.00,,---,0.00,VWS V14.01,2013-05-29 08:00:00,
2013-05-29 04:05:00,56.3,56.0,30.17,South,172,0.0,1.0,99,0.00,,---,0.00,VWS V14.01,2013-05-29 08:05:00,
2013-05-29 04:10:00,56.2,55.9,30.17,South,172,1.0,1.0,99,0.00,,---,0.00,VWS V14.01,2013-05-29 08:10:00,
2013-05-29 04:15:00,56.2,55.9,30.16,South,172,0.0,0.0,99,0.00,,---,0.00,VWS V14.01,2013-05-29 08:15:00,
2013-05-29 04:20:00,56.0,55.7,30.17,South,172,0.0,0.0,99,0.00,,---,0.00,VWS V14.01,2013-05-29 08:20:00,
2013-05-29 04:25:00,56.1,55.8,30.16,South,172,0.0,0.0,99,0.00,,---,0.00,VWS V14.01,2013-05-29 08:25:00,
2013-05-29 04:30:00,56.1,55.8,30.17,South,172,0.0,0.0,99,0.00,,---,0.00,VWS V14.01,2013-05-29 08:30:00,
2013-05-29 04:35:00,56.2,55.9,30.17,South,174,1.0,1.0,99,0.00,,---,0.00,VWS V14.01,2013-05-29 08:35:00,
2013-05-29 04:40:00,56.3,56.0,30.17,South,174,0.0,0.0,99,0.00,,---,0.00,VWS V14.01,2013-05-29 08:40:00,
2013-05-29 04:45:00,56.3,56.0,30.17,South,174,1.0,2.0,99,0.00,,---,0.00,VWS V14.01,2013-05-29 08:45:00,
2013-05-29 04:50:00,56.3,56.0,30.17,South,174,0.0,0.0,99,0.00,,---,0.00,VWS V14.01,2013-05-29 08:50:00,
2013-05-29 04:55:00,56.3,56.0,30.17,South,175,0.0,0.0,99,0.00,,---,0.00,VWS V14.01,2013-05-29 08:55:00,
2013-05-29 05:00:00,56.3,56.0,30.17,WSW,254,1.0,1.0,99,0.00,,---,0.00,VWS V14.01,2013-05-29 09:00:00,
2013-05-29 05:05:00,56.3,56.0,30.17,WSW,254,2.0,2.0,99,0.00,,---,0.00,VWS V14.01,2013-05-29 09:05:00,
2013-05-29 05:10:00,56.1,55.8,30.17,WSW,254,3.0,3.0,99,0.00,,---,0.00,VWS V14.01,2013-05-29 09:10:00,
2013-05-29 05:15:00,56.0,55.7,30.17,WSW,254,0.0,0.0,99,0.00,,---,0.00,VWS V14.01,2013-05-29 09:15:00,
2013-05-29 05:20:00,55.8,55.5,30.17,WSW,254,1.0,2.0,99,0.00,,---,0.00,VWS V14.01,2013-05-29 09:20:00,
2013-05-29 05:25:00,55.7,55.4,30.16,WSW,254,0.0,1.0,99,0.00,,---,0.00,VWS V14.01,2013-05-29 09:25:00,
2013-05-29 05:30:00,55.5,55.2,30.16,WSW,254,1.0,1.0,99,0.00,,---,0.00,VWS V14.01,2013-05-29 09:30:00,
2013-05-29 05:35:00,55.4,55.1,30.16,WSW,254,0.0,1.0,99,0.00,,---,0.00,VWS V14.01,2013-05-29 09:35:00,
2013-05-29 05:40:00,55.3,55.3,30.17,WSW,254,1.0,1.0,100,0.00,,---,0.00,VWS V14.01,2013-05-29 09:40:00,
2013-05-29 05:45:00,55.1,54.8,30.17,WSW,254,0.0,0.0,99,0.00,,---,0.00,VWS V14.01,2013-05-29 09:45:00,
2013-05-29 05:50:00,54.9,54.6,30.17,WSW,254,0.0,0.0,99,0.00,,---,0.00,VWS V14.01,2013-05-29 09:50:00,
2013-05-29 05:55:00,54.8,54.5,30.17,WSW,254,2.0,2.0,99,0.00,,---,0.00,VWS V14.01,2013-05-29 09:55:00,
2013-05-29 06:00:00,54.7,54.4,30.17,WSW,254,1.0,2.0,99,0.00,,---,0.00,VWS V14.01,2013-05-29 10:00:00,
2013-05-29 06:05:00,54.8,54.5,30.17,WSW,254,2.0,2.0,99,0.00,,---,0.00,VWS V14.01,2013-05-29 10:05:00,
2013-05-29 06:10:00,55.0,54.7,30.17,WSW,254,0.0,0.0,99,0.00,,---,0.00,VWS V14.01,2013-05-29 10:10:00,
2013-05-29 06:15:00,55.0,54.7,30.17,WSW,254,0.0,0.0,99,0.00,,---,0.00,VWS V14.01,2013-05-29 10:15:00,
2013-05-29 06:20:00,55.1,54.8,30.18,West,270,1.0,1.0,99,0.00,,---,0.00,VWS V14.01,2013-05-29 10:20:00,
2013-05-29 06:25:00,55.3,55.0,30.18,West,273,0.0,3.0,99,0.00,,---,0.00,VWS V14.01,2013-05-29 10:25:00,
2013-05-29 06:30:00,55.6,55.0,30.18,West,273,0.0,0.0,98,0.00,,---,0.00,VWS V14.01,2013-05-29 10:30:00,
2013-05-29 06:35:00,55.7,55.2,30.18,West,273,2.0,3.0,98,0.00,,---,0.00,VWS V14.01,2013-05-29 10:35:00,
2013-05-29 06:40:00,55.8,55.2,30.18,West,273,0.0,0.0,98,0.00,,---,0.00,VWS V14.01,2013-05-29 10:40:00,
2013-05-29 06:45:00,56.0,55.2,30.18,West,273,2.0,2.0,97,0.00,,---,0.00,VWS V14.01,2013-05-29 10:45:00,
2013-05-29 06:50:00,56.1,55.0,30.18,West,273,0.0,0.0,96,0.00,,---,0.00,VWS V14.01,2013-05-29 10:50:00,
2013-05-29 06:55:00,56.4,55.3,30.18,West,273,0.0,0.0,96,0.00,,---,0.00,VWS V14.01,2013-05-29 10:55:00,
2013-05-29 07:00:00,56.6,55.5,30.18,West,273,1.0,1.0,96,0.00,,---,0.00,VWS V14.01,2013-05-29 11:00:00,
2013-05-29 07:05:00,56.8,55.4,30.18,West,273,0.0,1.0,95,0.00,,---,0.00,VWS V14.01,2013-05-29 11:05:00,
2013-05-29 07:10:00,56.9,55.5,30.18,West,273,1.0,1.0,95,0.00,,---,0.00,VWS V14.01,2013-05-29 11:10:00,
2013-05-29 07:15:00,56.9,55.5,30.18,West,273,0.0,0.0,95,0.00,,---,0.00,VWS V14.01,2013-05-29 11:15:00,
2013-05-29 07:20:00,57.0,55.6,30.19,West,273,2.0,2.0,95,0.00,,---,0.00,VWS V14.01,2013-05-29 11:20:00,
2013-05-29 07:25:00,57.1,55.7,30.19,West,272,1.0,2.0,95,0.00,,---,0.00,VWS V14.01,2013-05-29 11:25:00,
2013-05-29 07:30:00,57.0,55.6,30.18,West,272,1.0,1.0,95,0.00,,---,0.00,VWS V14.01,2013-05-29 11:30:00,
2013-05-29 07:35:00,57.0,55.6,30.18,West,272,1.0,2.0,95,0.00,,---,0.00,VWS V14.01,2013-05-29 11:35:00,
2013-05-29 07:40:00,57.2,55.8,30.19,West,272,2.0,2.0,95,0.00,,---,0.00,VWS V14.01,2013-05-29 11:40:00,
2013-05-29 07:45:00,57.6,56.2,30.19,West,272,2.0,2.0,95,0.00,,---,0.00,VWS V14.01,2013-05-29 11:45:00,
2013-05-29 07:50:00,58.0,56.6,30.19,West,273,1.0,1.0,95,0.00,,---,0.00,VWS V14.01,2013-05-29 11:50:00,
2013-05-29 07:55:00,58.4,57.0,30.19,West,273,0.0,1.0,95,0.00,,---,0.00,VWS V14.01,2013-05-29 11:55:00,
2013-05-29 08:00:00,59.4,57.7,30.19,West,273,1.0,2.0,94,0.00,,---,0.00,VWS V14.01,2013-05-29 12:00:00,
2013-05-29 08:05:00,59.6,57.9,30.19,West,273,0.0,0.0,94,0.00,,---,0.00,VWS V14.01,2013-05-29 12:05:00,
2013-05-29 08:10:00,60.0,57.7,30.19,West,273,0.0,1.0,92,0.00,,---,0.00,VWS V14.01,2013-05-29 12:10:00,
2013-05-29 08:15:00,60.0,57.7,30.19,West,273,0.0,1.0,92,0.00,,---,0.00,VWS V14.01,2013-05-29 12:15:00,
2013-05-29 08:20:00,59.8,57.8,30.19,West,273,0.0,0.0,93,0.00,,---,0.00,VWS V14.01,2013-05-29 12:20:00,
2013-05-29 08:25:00,59.9,57.9,30.19,West,273,0.0,0.0,93,0.00,,---,0.00,VWS V14.01,2013-05-29 12:25:00,
2013-05-29 08:30:00,59.9,58.2,30.20,West,272,1.0,1.0,94,0.00,,---,0.00,VWS V14.01,2013-05-29 12:30:00,
2013-05-29 08:35:00,60.0,58.3,30.20,West,272,0.0,0.0,94,0.00,,---,0.00,VWS V14.01,2013-05-29 12:35:00,
2013-05-29 08:40:00,60.4,58.4,30.20,West,272,1.0,1.0,93,0.00,,---,0.00,VWS V14.01,2013-05-29 12:40:00,
2013-05-29 08:45:00,61.6,59.9,30.20,West,272,0.0,1.0,94,0.00,,---,0.00,VWS V14.01,2013-05-29 12:45:00,
2013-05-29 08:50:00,61.4,58.8,30.20,West,272,0.0,0.0,91,0.00,,---,0.00,VWS V14.01,2013-05-29 12:50:00,
2013-05-29 08:55:00,62.0,59.3,30.20,West,272,0.0,1.0,91,0.00,,---,0.00,VWS V14.01,2013-05-29 12:55:00,
2013-05-29 09:00:00,62.5,59.5,30.20,West,272,0.0,0.0,90,0.00,,---,0.00,VWS V14.01,2013-05-29 13:00:00,
2013-05-29 09:05:00,63.4,59.8,30.20,West,272,0.0,1.0,88,0.00,,---,0.00,VWS V14.01,2013-05-29 13:05:00,
2013-05-29 09:10:00,63.0,59.1,30.20,West,272,0.0,0.0,87,0.00,,---,0.00,VWS V14.01,2013-05-29 13:10:00,
2013-05-29 09:15:00,62.9,59.9,30.21,West,272,1.0,1.0,90,0.00,,---,0.00,VWS V14.01,2013-05-29 13:15:00,
2013-05-29 09:20:00,63.9,60.0,30.21,West,272,2.0,2.0,87,0.00,,---,0.00,VWS V14.01,2013-05-29 13:20:00,
2013-05-29 09:25:00,64.4,60.1,30.21,West,272,1.0,1.0,86,0.00,,---,0.00,VWS V14.01,2013-05-29 13:25:00,
2013-05-29 09:30:00,63.9,60.0,30.21,West,272,0.0,2.0,87,0.00,,---,0.00,VWS V14.01,2013-05-29 13:30:00,
2013-05-29 09:35:00,63.4,59.5,30.21,West,272,1.0,1.0,87,0.00,,---,0.00,VWS V14.01,2013-05-29 13:35:00,
2013-05-29 09:40:00,63.6,60.6,30.21,West,272,0.0,1.0,90,0.00,,---,0.00,VWS V14.01,2013-05-29 13:40:00,
2013-05-29 09:45:00,65.8,61.5,30.21,WSW,245,1.0,4.0,86,0.00,,---,0.00,VWS V14.01,2013-05-29 13:45:00,
2013-05-29 09:50:00,67.2,62.5,30.21,SSE,163,1.0,2.0,85,0.00,,---,0.00,VWS V14.01,2013-05-29 13:50:00,
2013-05-29 09:55:00,67.7,59.9,30.21,SSW,202,1.0,2.0,76,0.00,,---,0.00,VWS V14.01,2013-05-29 13:55:00,
2013-05-29 10:00:00,67.4,61.0,30.21,SSW,201,2.0,2.0,80,0.00,,---,0.00,VWS V14.01,2013-05-29 14:00:00,
2013-05-29 10:05:00,68.0,60.9,30.21,SE,140,3.0,3.0,78,0.00,,---,0.00,VWS V14.01,2013-05-29 14:05:00,
2013-05-29 10:10:00,68.2,61.8,30.21,SE,131,2.0,5.0,80,0.00,,---,0.00,VWS V14.01,2013-05-29 14:10:00,
2013-05-29 10:15:00,68.4,61.3,30.20,SSE,164,4.0,5.0,78,0.00,,---,0.00,VWS V14.01,2013-05-29 14:15:00,
2013-05-29 10:20:00,68.7,60.5,30.20,SSE,150,1.0,3.0,75,0.00,,---,0.00,VWS V14.01,2013-05-29 14:20:00,
2013-05-29 10:25:00,69.8,61.5,30.20,SSE,164,3.0,4.0,75,0.00,,---,0.00,VWS V14.01,2013-05-29 14:25:00,
2013-05-29 10:30:00,69.4,60.0,30.20,South,183,3.0,4.0,72,0.00,,---,0.00,VWS V14.01,2013-05-29 14:30:00,
2013-05-29 10:35:00,69.7,59.1,30.20,SSE,165,3.0,3.0,69,0.00,,---,0.00,VWS V14.01,2013-05-29 14:35:00,
2013-05-29 10:40:00,69.3,60.7,30.20,SE,134,3.0,8.0,74,0.00,,---,0.00,VWS V14.01,2013-05-29 14:40:00,
2013-05-29 10:45:00,69.5,60.9,30.19,ESE,122,5.0,7.0,74,0.00,,---,0.00,VWS V14.01,2013-05-29 14:45:00,
2013-05-29 10:50:00,69.6,59.4,30.20,ESE,122,3.0,3.0,70,0.00,,---,0.00,VWS V14.01,2013-05-29 14:50:00,
2013-05-29 10:55:00,70.4,60.2,30.20,SE,137,3.0,6.0,70,0.00,,---,0.00,VWS V14.01,2013-05-29 14:55:00,
2013-05-29 11:00:00,70.1,60.3,30.20,SSE,166,3.0,3.0,71,0.00,,---,0.00,VWS V14.01,2013-05-29 15:00:00,
2013-05-29 11:05:00,71.0,61.5,30.20,ESE,116,5.0,5.0,72,0.00,,---,0.00,VWS V14.01,2013-05-29 15:05:00,
2013-05-29 11:10:00,71.6,61.7,30.20,SE,136,4.0,5.0,71,0.00,,---,0.00,VWS V14.01,2013-05-29 15:10:00,
2013-05-29 11:15:00,71.3,61.0,30.20,SE,135,2.0,2.0,70,0.00,,---,0.00,VWS V14.01,2013-05-29 15:15:00,
2013-05-29 11:20:00,70.9,60.6,30.20,SSW,193,1.0,4.0,70,0.00,,---,0.00,VWS V14.01,2013-05-29 15:20:00,
2013-05-29 11:25:00,70.8,61.7,30.20,South,188,3.0,4.0,73,0.00,,---,0.00,VWS V14.01,2013-05-29 15:25:00,
2013-05-29 11:30:00,70.8,59.3,30.20,South,175,4.0,4.0,67,0.00,,---,0.00,VWS V14.01,2013-05-29 15:30:00,
2013-05-29 11:35:00,70.9,61.8,30.20,SSE,156,2.0,4.0,73,0.00,,---,0.00,VWS V14.01,2013-05-29 15:35:00,
2013-05-29 11:40:00,71.4,61.5,30.20,SSE,148,4.0,4.0,71,0.00,,---,0.00,VWS V14.01,2013-05-29 15:40:00,
2013-05-29 11:45:00,70.8,59.7,30.20,SSW,197,2.0,2.0,68,0.00,,---,0.00,VWS V14.01,2013-05-29 15:45:00,
2013-05-29 11:50:00,71.9,60.8,30.20,SSW,199,2.0,2.0,68,0.00,,---,0.00,VWS V14.01,2013-05-29 15:50:00,
2013-05-29 11:55:00,73.3,62.1,30.21,South,185,2.0,5.0,68,0.00,,---,0.00,VWS V14.01,2013-05-29 15:55:00,
2013-05-29 12:00:00,72.3,59.5,30.21,South,170,4.0,4.0,64,0.00,,---,0.00,VWS V14.01,2013-05-29 16:00:00,
2013-05-29 12:05:00,72.2,61.5,30.21,SSE,147,2.0,4.0,69,0.00,,---,0.00,VWS V14.01,2013-05-29 16:05:00,
2013-05-29 12:10:00,72.5,61.3,30.21,South,172,5.0,5.0,68,0.00,,---,0.00,VWS V14.01,2013-05-29 16:10:00,
2013-05-29 12:15:00,72.9,60.5,30.21,SSE,149,4.0,5.0,65,0.00,,---,0.00,VWS V14.01,2013-05-29 16:15:00,
2013-05-29 12:20:00,72.4,60.0,30.21,South,169,3.0,4.0,65,0.00,,---,0.00,VWS V14.01,2013-05-29 16:20:00,
2013-05-29 12:25:00,72.3,61.2,30.21,SSE,166,2.0,4.0,68,0.00,,---,0.00,VWS V14.01,2013-05-29 16:25:00,
2013-05-29 12:30:00,73.9,61.4,30.21,SSE,165,3.0,3.0,65,0.00,,---,0.00,VWS V14.01,2013-05-29 16:30:00,
2013-05-29 12:35:00,73.8,61.7,30.21,SE,135,8.0,8.0,66,0.00,,---,0.00,VWS V14.01,2013-05-29 16:35:00,
2013-05-29 12:40:00,73.3,61.3,30.21,SSE,168,7.0,7.0,66,0.00,,---,0.00,VWS V14.01,2013-05-29 16:40:00,
2013-05-29 12:45:00,73.6,61.1,30.21,East,94,3.0,7.0,65,0.00,,---,0.00,VWS V14.01,2013-05-29 16:45:00,
2013-05-29 12:50:00,73.5,61.9,30.21,SSE,166,4.0,7.0,67,0.00,,---,0.00,VWS V14.01,2013-05-29 16:50:00,
2013-05-29 12:55:00,72.3,60.3,30.20,South,181,2.0,2.0,66,0.00,,---,0.00,VWS V14.01,2013-05-29 16:55:00,
2013-05-29 13:00:00,73.1,61.5,30.20,SW,224,3.0,4.0,67,0.00,,---,0.00,VWS V14.01,2013-05-29 17:00:00,
2013-05-29 13:05:00,72.4,61.7,30.20,South,176,2.0,7.0,69,0.00,,---,0.00,VWS V14.01,2013-05-29 17:05:00,
2013-05-29 13:10:00,73.8,63.0,30.20,South,176,3.0,7.0,69,0.00,,---,0.00,VWS V14.01,2013-05-29 17:10:00,
2013-05-29 13:15:00,73.0,61.0,30.20,South,190,3.0,4.0,66,0.00,,---,0.00,VWS V14.01,2013-05-29 17:15:00,
2013-05-29 13:20:00,73.4,60.9,30.20,South,178,4.0,5.0,65,0.00,,---,0.00,VWS V14.01,2013-05-29 17:20:00,
2013-05-29 13:25:00,71.8,61.1,30.20,SE,137,1.0,6.0,69,0.00,,---,0.00,VWS V14.01,2013-05-29 17:25:00,
2013-05-29 13:30:00,72.2,60.7,30.19,SSE,164,7.0,8.0,67,0.00,,---,0.00,VWS V14.01,2013-05-29 17:30:00,
2013-05-29 13:35:00,73.4,61.8,30.19,South,179,4.0,6.0,67,0.00,,---,0.00,VWS V14.01,2013-05-29 17:35:00,
2013-05-29 13:40:00,73.6,61.5,30.19,SSE,158,3.0,7.0,66,0.00,,---,0.00,VWS V14.01,2013-05-29 17:40:00,
2013-05-29 13:45:00,74.0,61.5,30.20,ESE,122,3.0,5.0,65,0.00,,---,0.00,VWS V14.01,2013-05-29 17:45:00,
2013-05-29 13:50:00,71.3,59.8,30.19,SE,132,4.0,7.0,67,0.00,,---,0.00,VWS V14.01,2013-05-29 17:50:00,
2013-05-29 13:55:00,71.9,62.0,30.19,SE,129,7.0,8.0,71,0.00,,---,0.00,VWS V14.01,2013-05-29 17:55:00,
2013-05-29 14:00:00,72.4,61.2,30.19,South,171,4.0,6.0,68,0.00,,---,0.00,VWS V14.01,2013-05-29 18:00:00,
2013-05-29 14:05:00,71.9,61.6,30.19,SE,139,3.0,7.0,70,0.00,,---,0.00,VWS V14.01,2013-05-29 18:05:00,
2013-05-29 14:10:00,71.8,59.8,30.19,ESE,114,3.0,5.0,66,0.00,,---,0.00,VWS V14.01,2013-05-29 18:10:00,
2013-05-29 14:15:00,71.9,61.6,30.19,ESE,107,4.0,6.0,70,0.00,,---,0.00,VWS V14.01,2013-05-29 18:15:00,
2013-05-29 14:20:00,72.1,61.4,30.19,SSE,158,4.0,7.0,69,0.00,,---,0.00,VWS V14.01,2013-05-29 18:20:00,
2013-05-29 14:25:00,71.9,60.8,30.19,ESE,122,3.0,4.0,68,0.00,,---,0.00,VWS V14.01,2013-05-29 18:25:00,
2013-05-29 14:30:00,72.6,61.9,30.19,East,101,7.0,7.0,69,0.00,,---,0.00,VWS V14.01,2013-05-29 18:30:00,
2013-05-29 14:35:00,72.8,61.6,30.19,South,172,4.0,5.0,68,0.00,,---,0.00,VWS V14.01,2013-05-29 18:35:00,
2013-05-29 14:40:00,73.3,61.3,30.19,SE,146,2.0,4.0,66,0.00,,---,0.00,VWS V14.01,2013-05-29 18:40:00,
2013-05-29 14:45:00,73.4,60.9,30.19,South,170,5.0,6.0,65,0.00,,---,0.00,VWS V14.01,2013-05-29 18:45:00,
2013-05-29 14:50:00,72.7,58.9,30.19,East,88,7.0,9.0,62,0.00,,---,0.00,VWS V14.01,2013-05-29 18:50:00,
2013-05-29 14:55:00,72.6,61.4,30.18,SSE,150,7.0,7.0,68,0.00,,---,0.00,VWS V14.01,2013-05-29 18:55:00,
2013-05-29 15:00:00,72.4,60.4,30.18,South,181,3.0,5.0,66,0.00,,---,0.00,VWS V14.01,2013-05-29 19:00:00,
2013-05-29 15:05:00,71.5,59.1,30.18,SSE,167,4.0,7.0,65,0.00,,---,0.00,VWS V14.01,2013-05-29 19:05:00,
2013-05-29 15:10:00,72.0,60.9,30.18,East,98,7.0,8.0,68,0.00,,---,0.00,VWS V14.01,2013-05-29 19:10:00,
2013-05-29 15:15:00,71.8,58.5,30.18,SSE,164,9.0,9.0,63,0.00,,---,0.00,VWS V14.01,2013-05-29 19:15:00,
2013-05-29 15:20:00,71.2,59.7,30.18,East,90,5.0,8.0,67,0.00,,---,0.00,VWS V14.01,2013-05-29 19:20:00,
2013-05-29 15:25:00,72.0,60.0,30.17,SE,128,7.0,7.0,66,0.00,,---,0.00,VWS V14.01,2013-05-29 19:25:00,
2013-05-29 15:30:00,71.8,60.3,30.17,ESE,122,2.0,3.0,67,0.00,,---,0.00,VWS V14.01,2013-05-29 19:30:00,
2013-05-29 15:35:00,72.1,61.0,30.17,East,98,5.0,5.0,68,0.00,,---,0.00,VWS V14.01,2013-05-29 19:35:00,
2013-05-29 15:40:00,71.9,59.5,30.17,SSE,162,5.0,5.0,65,0.00,,---,0.00,VWS V14.01,2013-05-29 19:40:00,
2013-05-29 15:45:00,71.0,58.7,30.17,South,178,2.0,5.0,65,0.00,,---,0.00,VWS V14.01,2013-05-29 19:45:00,
2013-05-29 15:50:00,71.1,59.2,30.17,SSE,159,5.0,6.0,66,0.00,,---,0.00,VWS V14.01,2013-05-29 19:50:00,
2013-05-29 15:55:00,71.1,59.6,30.17,SSE,166,6.0,8.0,67,0.00,,---,0.00,VWS V14.01,2013-05-29 19:55:00,
2013-05-29 16:00:00,71.4,61.1,30.17,ESE,106,4.0,8.0,70,0.00,,---,0.00,VWS V14.01,2013-05-29 20:00:00,
2013-05-29 16:05:00,71.2,60.1,30.17,South,173,5.0,7.0,68,0.00,,---,0.00,VWS V14.01,2013-05-29 20:05:00,
2013-05-29 16:10:00,71.6,61.3,30.17,SSE,154,5.0,8.0,70,0.00,,---,0.00,VWS V14.01,2013-05-29 20:10:00,
2013-05-29 16:15:00,71.1,60.0,30.16,SE,145,4.0,5.0,68,0.00,,---,0.00,VWS V14.01,2013-05-29 20:15:00,
2013-05-29 16:20:00,70.8,60.5,30.16,SE,124,7.0,7.0,70,0.00,,---,0.00,VWS V14.01,2013-05-29 20:20:00,
2013-05-29 16:25:00,70.8,60.5,30.16,SE,136,4.0,9.0,70,0.00,,---,0.00,VWS V14.01,2013-05-29 20:25:00,
2013-05-29 16:30:00,70.6,59.5,30.16,East,98,8.0,9.0,68,0.00,,---,0.00,VWS V14.01,2013-05-29 20:30:00,
2013-05-29 16:35:00,70.1,59.9,30.16,ESE,104,5.0,7.0,70,0.00,,---,0.00,VWS V14.01,2013-05-29 20:35:00,
2013-05-29 16:40:00,70.1,59.5,30.16,SE,132,5.0,7.0,69,0.00,,---,0.00,VWS V14.01,2013-05-29 20:40:00,
2013-05-29 16:45:00,69.5,58.9,30.16,East,101,4.0,11.0,69,0.00,,---,0.00,VWS V14.01,2013-05-29 20:45:00,
2013-05-29 16:50:00,68.6,58.4,30.16,ESE,120,6.0,7.0,70,0.00,,---,0.00,VWS V14.01,2013-05-29 20:50:00,
2013-05-29 16:55:00,68.6,58.4,30.16,South,174,3.0,5.0,70,0.00,,---,0.00,VWS V14.01,2013-05-29 20:55:00,
2013-05-29 17:00:00,68.7,58.1,30.16,SSE,150,5.0,7.0,69,0.00,,---,0.00,VWS V14.01,2013-05-29 21:00:00,
2013-05-29 17:05:00,68.6,58.0,30.16,ESE,111,3.0,8.0,69,0.00,,---,0.00,VWS V14.01,2013-05-29 21:05:00,
2013-05-29 17:10:00,68.6,58.0,30.16,SSE,159,5.0,8.0,69,0.00,,---,0.00,VWS V14.01,2013-05-29 21:10:00,
2013-05-29 17:15:00,68.5,57.1,30.16,East,101,1.0,7.0,67,0.00,,---,0.00,VWS V14.01,2013-05-29 21:15:00,
2013-05-29 17:20:00,68.4,57.4,30.16,South,179,5.0,7.0,68,0.00,,---,0.00,VWS V14.01,2013-05-29 21:20:00,
2013-05-29 17:25:00,68.1,56.7,30.15,SE,136,3.0,7.0,67,0.00,,---,0.00,VWS V14.01,2013-05-29 21:25:00,
2013-05-29 17:30:00,67.7,56.4,30.16,ESE,111,1.0,8.0,67,0.00,,---,0.00,VWS V14.01,2013-05-29 21:30:00,
2013-05-29 17:35:00,67.5,56.6,30.16,ESE,118,5.0,8.0,68,0.00,,---,0.00,VWS V14.01,2013-05-29 21:35:00,
2013-05-29 17:40:00,67.4,55.7,30.16,ESE,106,3.0,9.0,66,0.00,,---,0.00,VWS V14.01,2013-05-29 21:40:00,
2013-05-29 17:45:00,67.1,56.2,30.16,ESE,120,3.0,8.0,68,0.00,,---,0.00,VWS V14.01,2013-05-29 21:45:00,
2013-05-29 17:50:00,66.8,56.3,30.16,East,101,7.0,8.0,69,0.00,,---,0.00,VWS V14.01,2013-05-29 21:50:00,
2013-05-29 17:55:00,66.5,56.0,30.16,ESE,122,6.0,8.0,69,0.00,,---,0.00,VWS V14.01,2013-05-29 21:55:00,
2013-05-29 18:00:00,66.3,56.2,30.16,SSE,156,1.0,7.0,70,0.00,,---,0.00,VWS V14.01,2013-05-29 22:00:00,
2013-05-29 18:05:00,66.1,56.8,30.16,East,89,3.0,7.0,72,0.00,,---,0.00,VWS V14.01,2013-05-29 22:05:00,
2013-05-29 18:10:00,65.7,56.8,30.16,South,174,6.0,6.0,73,0.00,,---,0.00,VWS V14.01,2013-05-29 22:10:00,
2013-05-29 18:15:00,65.4,55.8,30.16,SSE,158,5.0,7.0,71,0.00,,---,0.00,VWS V14.01,2013-05-29 22:15:00,
2013-05-29 18:20:00,65.2,55.6,30.16,South,170,7.0,7.0,71,0.00,,---,0.00,VWS V14.01,2013-05-29 22:20:00,
2013-05-29 18:25:00,65.0,55.8,30.16,ESE,110,6.0,7.0,72,0.00,,---,0.00,VWS V14.01,2013-05-29 22:25:00,
2013-05-29 18:30:00,64.6,56.1,30.16,SSE,158,3.0,5.0,74,0.00,,---,0.00,VWS V14.01,2013-05-29 22:30:00,
2013-05-29 18:35:00,64.4,55.2,30.16,SSE,148,5.0,5.0,72,0.00,,---,0.00,VWS V14.01,2013-05-29 22:35:00,
2013-05-29 18:40:00,64.2,55.4,30.16,SE,131,2.0,7.0,73,0.00,,---,0.00,VWS V14.01,2013-05-29 22:40:00,
2013-05-29 18:45:00,64.1,54.5,30.16,South,173,4.0,6.0,71,0.00,,---,0.00,VWS V14.01,2013-05-29 22:45:00,
2013-05-29 18:50:00,63.8,53.5,30.16,SSE,162,5.0,5.0,69,0.00,,---,0.00,VWS V14.01,2013-05-29 22:50:00,
2013-05-29 18:55:00,63.6,52.9,30.16,SE,129,6.0,9.0,68,0.00,,---,0.00,VWS V14.01,2013-05-29 22:55:00,
2013-05-29 19:00:00,63.2,52.9,30.16,SE,133,4.0,7.0,69,0.00,,---,0.00,VWS V14.01,2013-05-29 23:00:00,
2013-05-29 19:05:00,63.0,52.7,30.16,ESE,105,5.0,6.0,69,0.00,,---,0.00,VWS V14.01,2013-05-29 23:05:00,
2013-05-29 19:10:00,62.7,53.2,30.16,East,82,8.0,8.0,71,0.00,,---,0.00,VWS V14.01,2013-05-29 23:10:00,
2013-05-29 19:15:00,62.6,53.1,30.16,SE,143,4.0,6.0,71,0.00,,---,0.00,VWS V14.01,2013-05-29 23:15:00,
2013-05-29 19:20:00,62.5,53.4,30.16,ESE,108,5.0,8.0,72,0.00,,---,0.00,VWS V14.01,2013-05-29 23:20:00,
2013-05-29 19:25:00,62.3,53.5,30.16,ESE,104,7.0,8.0,73,0.00,,---,0.00,VWS V14.01,2013-05-29 23:25:00,
2013-05-29 19:30:00,62.3,53.9,30.16,ESE,111,5.0,9.0,74,0.00,,---,0.00,VWS V14.01,2013-05-29 23:30:00,
2013-05-29 19:35:00,62.2,54.5,30.16,ESE,122,6.0,7.0,76,0.00,,---,0.00,VWS V14.01,2013-05-29 23:35:00,
2013-05-29 19:40:00,61.9,54.6,30.16,SE,133,5.0,8.0,77,0.00,,---,0.00,VWS V14.01,2013-05-29 23:40:00,
2013-05-29 19:45:00,61.8,54.9,30.16,East,97,5.0,7.0,78,0.00,,---,0.00,VWS V14.01,2013-05-29 23:45:00,
2013-05-29 19:50:00,61.6,54.7,30.16,East,99,3.0,8.0,78,0.00,,---,0.00,VWS V14.01,2013-05-29 23:50:00,
2013-05-29 19:55:00,61.4,54.8,30.16,SSE,150,5.0,5.0,79,0.00,,---,0.00,VWS V14.01,2013-05-29 23:55:00,
2013-05-29 20:00:00,61.2,55.0,30.16,SE,137,7.0,7.0,80,0.00,,---,0.00,VWS V14.01,2013-05-30 00:00:00,
2013-05-29 20:05:00,61.0,55.1,30.16,SE,133,4.0,5.0,81,0.00,,---,0.00,VWS V14.01,2013-05-30 00:05:00,
2013-05-29 20:10:00,60.9,55.4,30.16,SE,137,3.0,4.0,82,0.00,,---,0.00,VWS V14.01,2013-05-30 00:10:00,
2013-05-29 20:15:00,60.7,55.2,30.16,SSE,149,5.0,5.0,82,0.00,,---,0.00,VWS V14.01,2013-05-30 00:15:00,
2013-05-29 20:20:00,60.5,55.3,30.16,SE,127,3.0,8.0,83,0.00,,---,0.00,VWS V14.01,2013-05-30 00:20:00,
2013-05-29 20:25:00,60.4,55.5,30.16,SE,137,4.0,5.0,84,0.00,,---,0.00,VWS V14.01,2013-05-30 00:25:00,
2013-05-29 20:30:00,60.2,55.7,30.17,SSE,158,4.0,4.0,85,0.00,,---,0.00,VWS V14.01,2013-05-30 00:30:00,
2013-05-29 20:35:00,60.1,55.6,30.17,SSE,157,3.0,4.0,85,0.00,,---,0.00,VWS V14.01,2013-05-30 00:35:00,
2013-05-29 20:40:00,59.8,55.6,30.17,SSE,157,4.0,4.0,86,0.00,,---,0.00,VWS V14.01,2013-05-30 00:40:00,
2013-05-29 20:45:00,59.6,55.7,30.17,SSE,162,4.0,4.0,87,0.00,,---,0.00,VWS V14.01,2013-05-30 00:45:00,
2013-05-29 20:50:00,59.5,55.6,30.17,South,175,4.0,4.0,87,0.00,,---,0.00,VWS V14.01,2013-05-30 00:50:00,
2013-05-29 20:55:00,59.5,55.6,30.17,SSE,168,4.0,4.0,87,0.00,,---,0.00,VWS V14.01,2013-05-30 00:55:00,
2013-05-29 21:00:00,59.5,56.0,30.17,SSE,168,3.0,3.0,88,0.00,,---,0.00,VWS V14.01,2013-05-30 01:00:00,
2013-05-29 21:05:00,59.4,55.8,30.17,SSE,168,2.0,3.0,88,0.00,,---,0.00,VWS V14.01,2013-05-30 01:05:00,
2013-05-29 21:10:00,59.0,55.5,30.17,SSE,148,3.0,3.0,88,0.00,,---,0.00,VWS V14.01,2013-05-30 01:10:00,
2013-05-29 21:15:00,58.7,55.5,30.17,SSE,148,3.0,3.0,89,0.00,,---,0.00,VWS V14.01,2013-05-30 01:15:00,
2013-05-29 21:20:00,58.6,55.7,30.17,SE,146,3.0,4.0,90,0.00,,---,0.00,VWS V14.01,2013-05-30 01:20:00,
2013-05-29 21:25:00,58.5,55.6,30.17,SE,142,3.0,4.0,90,0.00,,---,0.00,VWS V14.01,2013-05-30 01:25:00,
2013-05-29 21:30:00,58.5,55.6,30.17,SE,124,3.0,5.0,90,0.00,,---,0.00,VWS V14.01,2013-05-30 01:30:00,
2013-05-29 21:35:00,58.5,55.6,30.18,SE,144,3.0,4.0,90,0.00,,---,0.00,VWS V14.01,2013-05-30 01:35:00,
2013-05-29 21:40:00,58.4,55.5,30.17,SE,133,4.0,4.0,90,0.00,,---,0.00,VWS V14.01,2013-05-30 01:40:00,
2013-05-29 21:45:00,58.3,55.4,30.17,ESE,118,6.0,6.0,90,0.00,,---,0.00,VWS V14.01,2013-05-30 01:45:00,
2013-05-29 21:50:00,58.2,55.6,30.17,ESE,116,6.0,6.0,91,0.00,,---,0.00,VWS V14.01,2013-05-30 01:50:00,
2013-05-29 21:55:00,58.1,55.5,30.17,ESE,106,5.0,7.0,91,0.00,,---,0.00,VWS V14.01,2013-05-30 01:55:00,
2013-05-29 22:00:00,58.0,55.4,30.17,ESE,116,5.0,5.0,91,0.00,,---,0.00,VWS V14.01,2013-05-30 02:00:00,
2013-05-29 22:05:00,58.0,55.4,30.18,ESE,116,5.0,6.0,91,0.00,,---,0.00,VWS V14.01,2013-05-30 02:05:00,
2013-05-29 22:10:00,57.9,55.6,30.18,ESE,114,5.0,5.0,92,0.00,,---,0.00,VWS V14.01,2013-05-30 02:10:00,
2013-05-29 22:15:00,57.9,55.6,30.18,ESE,116,5.0,6.0,92,0.00,,---,0.00,VWS V14.01,2013-05-30 02:15:00,
2013-05-29 22:20:00,57.9,55.6,30.18,SE,135,7.0,7.0,92,0.00,,---,0.00,VWS V14.01,2013-05-30 02:20:00,
2013-05-29 22:25:00,57.8,55.2,30.18,ESE,122,6.0,9.0,91,0.00,,---,0.00,VWS V14.01,2013-05-30 02:25:00,
2013-05-29 22:30:00,57.7,55.4,30.18,ESE,114,6.0,6.0,92,0.00,,---,0.00,VWS V14.01,2013-05-30 02:30:00,
2013-05-29 22:35:00,57.6,55.3,30.19,SE,126,6.0,6.0,92,0.00,,---,0.00,VWS V14.01,2013-05-30 02:35:00,
2013-05-29 22:40:00,57.5,55.2,30.19,ESE,108,4.0,7.0,92,0.00,,---,0.00,VWS V14.01,2013-05-30 02:40:00,
2013-05-29 22:45:00,57.4,55.1,30.18,ESE,113,5.0,7.0,92,0.00,,---,0.00,VWS V14.01,2013-05-30 02:45:00,
2013-05-29 22:50:00,57.3,54.7,30.19,ESE,112,5.0,6.0,91,0.00,,---,0.00,VWS V14.01,2013-05-30 02:50:00,
2013-05-29 22:55:00,57.5,54.9,30.19,ESE,113,5.0,5.0,91,0.00,,---,0.00,VWS V14.01,2013-05-30 02:55:00,
2013-05-29 23:00:00,57.7,54.8,30.19,ESE,114,3.0,6.0,90,0.00,,---,0.00,VWS V14.01,2013-05-30 03:00:00,
2013-05-29 23:05:00,57.6,55.0,30.19,ESE,111,5.0,7.0,91,0.00,,---,0.00,VWS V14.01,2013-05-30 03:05:00,
2013-05-29 23:10:00,57.6,55.0,30.19,SSE,151,4.0,5.0,91,0.00,,---,0.00,VWS V14.01,2013-05-30 03:10:00,
2013-05-29 23:15:00,57.6,55.0,30.19,ESE,119,5.0,7.0,91,0.00,,---,0.00,VWS V14.01,2013-05-30 03:15:00,
2013-05-29 23:19:00,57.8,55.2,30.19,ESE,114,5.0,6.0,91,0.00,,---,0.00,VWS V14.01,2013-05-30 03:19:00,
2013-05-29 23:24:00,57.7,55.1,30.19,SSE,160,5.0,7.0,91,0.00,,---,0.00,VWS V14.01,2013-05-30 03:24:00,
2013-05-29 23:29:00,57.7,55.1,30.19,ESE,114,7.0,7.0,91,0.00,,---,0.00,VWS V14.01,2013-05-30 03:29:00,
2013-05-29 23:34:00,57.7,55.1,30.19,SE,126,5.0,5.0,91,0.00,,---,0.00,VWS V14.01,2013-05-30 03:34:00,
2013-05-29 23:39:00,57.8,55.2,30.19,ESE,114,3.0,5.0,91,0.00,,---,0.00,VWS V14.01,2013-05-30 03:39:00,
2013-05-29 23:44:00,57.9,55.3,30.19,ESE,106,4.0,6.0,91,0.00,,---,0.00,VWS V14.01,2013-05-30 03:44:00,
2013-05-29 23:49:00,58.1,55.5,30.19,East,97,4.0,6.0,91,0.00,,---,0.00,VWS V14.01,2013-05-30 03:49:00,
2013-05-29 23:54:00,58.1,55.5,30.19,ESE,115,5.0,6.0,91,0.00,,---,0.00,VWS V14.01,2013-05-30 03:54:00,
2013-05-29 23:59:00,58.1,55.5,30.19,ESE,116,6.0,7.0,91,0.00,,---,0.00,VWS V14.01,2013-05-30 03:59:00,